sensor_id;sensor_type;location;lat;lon;timestamp;temperature;humidity
3356;DHT22;1691;52.486;13.374;2023-02-15T00:00:05;4.10;94.90
3356;DHT22;1691;52.486;13.374;2023-02-15T00:02:34;4.10;95.00
3356;DHT22;1691;52.486;13.374;2023-02-15T00:05:01;4.00;95.00
3356;DHT22;1691;52.486;13.374;2023-02-15T00:07:28;4.00;95.10
3356;DHT22;1691;52.486;13.374;2023-02-15T00:09:55;4.00;95.20
3356;DHT22;1691;52.486;13.374;2023-02-15T00:12:22;4.00;95.20
3356;DHT22;1691;52.486;13.374;2023-02-15T00:14:49;3.90;95.40
3356;DHT22;1691;52.486;13.374;2023-02-15T00:17:16;3.90;95.40
3356;DHT22;1691;52.486;13.374;2023-02-15T00:19:43;3.90;95.50
3356;DHT22;1691;52.486;13.374;2023-02-15T00:22:10;3.80;95.60
3356;DHT22;1691;52.486;13.374;2023-02-15T00:24:37;3.80;95.60
3356;DHT22;1691;52.486;13.374;2023-02-15T00:27:04;3.80;95.70
3356;DHT22;1691;52.486;13.374;2023-02-15T00:29:31;3.80;95.80
3356;DHT22;1691;52.486;13.374;2023-02-15T00:31:58;3.70;95.90
3356;DHT22;1691;52.486;13.374;2023-02-15T00:34:26;3.70;96.00
3356;DHT22;1691;52.486;13.374;2023-02-15T00:36:53;3.70;96.00
3356;DHT22;1691;52.486;13.374;2023-02-15T00:39:20;3.70;96.00
3356;DHT22;1691;52.486;13.374;2023-02-15T00:41:47;3.70;96.00
3356;DHT22;1691;52.486;13.374;2023-02-15T00:44:15;3.70;96.00
3356;DHT22;1691;52.486;13.374;2023-02-15T00:46:42;3.60;96.10
3356;DHT22;1691;52.486;13.374;2023-02-15T00:49:10;3.60;96.10
3356;DHT22;1691;52.486;13.374;2023-02-15T00:51:37;3.60;96.20
3356;DHT22;1691;52.486;13.374;2023-02-15T00:54:04;3.60;96.20
3356;DHT22;1691;52.486;13.374;2023-02-15T00:56:32;3.60;96.30
3356;DHT22;1691;52.486;13.374;2023-02-15T00:58:59;3.60;96.40
3356;DHT22;1691;52.486;13.374;2023-02-15T01:01:26;3.60;96.40
3356;DHT22;1691;52.486;13.374;2023-02-15T01:03:53;3.60;96.40
3356;DHT22;1691;52.486;13.374;2023-02-15T01:06:20;3.60;96.50
3356;DHT22;1691;52.486;13.374;2023-02-15T01:08:47;3.60;96.50
3356;DHT22;1691;52.486;13.374;2023-02-15T01:11:17;3.60;96.50
3356;DHT22;1691;52.486;13.374;2023-02-15T01:13:54;3.60;96.70
3356;DHT22;1691;52.486;13.374;2023-02-15T01:16:23;3.60;96.70
3356;DHT22;1691;52.486;13.374;2023-02-15T01:18:52;3.60;96.70
3356;DHT22;1691;52.486;13.374;2023-02-15T01:21:22;3.50;96.80
3356;DHT22;1691;52.486;13.374;2023-02-15T01:23:50;3.50;96.80
3356;DHT22;1691;52.486;13.374;2023-02-15T01:26:18;3.50;96.80
3356;DHT22;1691;52.486;13.374;2023-02-15T01:28:46;3.50;96.90
3356;DHT22;1691;52.486;13.374;2023-02-15T01:31:15;3.50;96.90
3356;DHT22;1691;52.486;13.374;2023-02-15T01:33:46;3.50;97.10
3356;DHT22;1691;52.486;13.374;2023-02-15T01:36:14;3.50;97.10
3356;DHT22;1691;52.486;13.374;2023-02-15T01:38:41;3.50;97.20
3356;DHT22;1691;52.486;13.374;2023-02-15T01:41:08;3.50;97.20
3356;DHT22;1691;52.486;13.374;2023-02-15T01:43:58;3.50;97.30
3356;DHT22;1691;52.486;13.374;2023-02-15T01:46:35;3.50;97.20
3356;DHT22;1691;52.486;13.374;2023-02-15T01:49:13;3.50;97.30
3356;DHT22;1691;52.486;13.374;2023-02-15T01:51:45;3.50;97.30
3356;DHT22;1691;52.486;13.374;2023-02-15T01:54:27;3.50;97.30
3356;DHT22;1691;52.486;13.374;2023-02-15T01:57:00;3.40;97.30
3356;DHT22;1691;52.486;13.374;2023-02-15T01:59:32;3.40;97.40
3356;DHT22;1691;52.486;13.374;2023-02-15T02:02:01;3.40;97.40
3356;DHT22;1691;52.486;13.374;2023-02-15T02:04:40;3.40;97.40
3356;DHT22;1691;52.486;13.374;2023-02-15T02:07:09;3.40;97.50
3356;DHT22;1691;52.486;13.374;2023-02-15T02:09:36;3.40;97.60
3356;DHT22;1691;52.486;13.374;2023-02-15T02:12:04;3.40;97.60
3356;DHT22;1691;52.486;13.374;2023-02-15T02:14:31;3.40;97.60
3356;DHT22;1691;52.486;13.374;2023-02-15T02:23:27;3.30;97.80
3356;DHT22;1691;52.486;13.374;2023-02-15T02:41:17;3.10;97.90
3356;DHT22;1691;52.486;13.374;2023-02-15T02:43:54;3.10;97.90
3356;DHT22;1691;52.486;13.374;2023-02-15T02:47:09;3.00;98.00
3356;DHT22;1691;52.486;13.374;2023-02-15T02:49:45;3.00;98.00
3356;DHT22;1691;52.486;13.374;2023-02-15T02:52:41;3.00;98.10
3356;DHT22;1691;52.486;13.374;2023-02-15T02:55:19;2.90;98.10
3356;DHT22;1691;52.486;13.374;2023-02-15T02:58:13;2.90;98.20
3356;DHT22;1691;52.486;13.374;2023-02-15T03:00:54;2.90;98.10
3356;DHT22;1691;52.486;13.374;2023-02-15T03:06:13;2.90;98.30
3356;DHT22;1691;52.486;13.374;2023-02-15T03:08:51;2.80;98.40
3356;DHT22;1691;52.486;13.374;2023-02-15T03:11:23;2.80;98.50
3356;DHT22;1691;52.486;13.374;2023-02-15T03:13:51;2.80;98.50
3356;DHT22;1691;52.486;13.374;2023-02-15T03:16:19;2.80;98.50
3356;DHT22;1691;52.486;13.374;2023-02-15T03:19:00;2.70;98.50
3356;DHT22;1691;52.486;13.374;2023-02-15T03:21:48;2.70;98.50
3356;DHT22;1691;52.486;13.374;2023-02-15T03:24:28;2.60;98.60
3356;DHT22;1691;52.486;13.374;2023-02-15T03:27:04;2.60;98.60
3356;DHT22;1691;52.486;13.374;2023-02-15T03:29:34;2.50;98.60
3356;DHT22;1691;52.486;13.374;2023-02-15T03:32:05;2.50;98.60
3356;DHT22;1691;52.486;13.374;2023-02-15T03:34:34;2.50;98.70
3356;DHT22;1691;52.486;13.374;2023-02-15T03:37:11;2.40;98.70
3356;DHT22;1691;52.486;13.374;2023-02-15T03:39:48;2.40;98.70
3356;DHT22;1691;52.486;13.374;2023-02-15T03:42:32;2.40;98.70
3356;DHT22;1691;52.486;13.374;2023-02-15T03:45:11;2.40;98.70
3356;DHT22;1691;52.486;13.374;2023-02-15T03:47:45;2.30;98.70
3356;DHT22;1691;52.486;13.374;2023-02-15T03:53:07;2.30;98.70
3356;DHT22;1691;52.486;13.374;2023-02-15T03:55:36;2.20;98.70
3356;DHT22;1691;52.486;13.374;2023-02-15T03:58:03;2.20;98.70
3356;DHT22;1691;52.486;13.374;2023-02-15T04:01:04;2.20;98.70
3356;DHT22;1691;52.486;13.374;2023-02-15T04:03:59;2.20;98.70
3356;DHT22;1691;52.486;13.374;2023-02-15T04:06:32;2.10;98.70
3356;DHT22;1691;52.486;13.374;2023-02-15T04:08:59;2.10;98.70
3356;DHT22;1691;52.486;13.374;2023-02-15T04:11:45;2.10;98.70
3356;DHT22;1691;52.486;13.374;2023-02-15T04:14:12;2.10;98.70
3356;DHT22;1691;52.486;13.374;2023-02-15T04:16:57;2.00;98.70
3356;DHT22;1691;52.486;13.374;2023-02-15T04:19:24;2.00;98.70
3356;DHT22;1691;52.486;13.374;2023-02-15T04:22:10;2.00;98.70
3356;DHT22;1691;52.486;13.374;2023-02-15T04:24:55;1.90;98.70
3356;DHT22;1691;52.486;13.374;2023-02-15T04:27:46;1.90;98.70
3356;DHT22;1691;52.486;13.374;2023-02-15T04:30:15;1.80;98.70
3356;DHT22;1691;52.486;13.374;2023-02-15T04:32:45;1.70;98.70
3356;DHT22;1691;52.486;13.374;2023-02-15T04:35:12;1.70;98.70
3356;DHT22;1691;52.486;13.374;2023-02-15T04:37:40;1.70;98.70
3356;DHT22;1691;52.486;13.374;2023-02-15T04:40:10;1.60;98.70
3356;DHT22;1691;52.486;13.374;2023-02-15T04:42:40;1.60;98.70
3356;DHT22;1691;52.486;13.374;2023-02-15T04:45:07;1.50;98.70
3356;DHT22;1691;52.486;13.374;2023-02-15T04:47:34;1.50;98.70
3356;DHT22;1691;52.486;13.374;2023-02-15T04:50:01;1.40;98.70
3356;DHT22;1691;52.486;13.374;2023-02-15T04:52:29;1.40;98.70
3356;DHT22;1691;52.486;13.374;2023-02-15T04:54:56;1.30;98.70
3356;DHT22;1691;52.486;13.374;2023-02-15T04:57:23;1.30;98.70
3356;DHT22;1691;52.486;13.374;2023-02-15T04:59:49;1.30;98.70
3356;DHT22;1691;52.486;13.374;2023-02-15T05:02:16;1.20;98.70
3356;DHT22;1691;52.486;13.374;2023-02-15T05:04:43;1.20;98.70
3356;DHT22;1691;52.486;13.374;2023-02-15T05:07:10;1.10;98.70
3356;DHT22;1691;52.486;13.374;2023-02-15T05:09:37;1.10;98.70
3356;DHT22;1691;52.486;13.374;2023-02-15T05:12:04;1.10;98.70
3356;DHT22;1691;52.486;13.374;2023-02-15T05:14:31;1.00;98.70
3356;DHT22;1691;52.486;13.374;2023-02-15T05:16:58;1.00;98.70
3356;DHT22;1691;52.486;13.374;2023-02-15T05:19:27;1.00;98.70
3356;DHT22;1691;52.486;13.374;2023-02-15T05:21:55;1.00;98.70
3356;DHT22;1691;52.486;13.374;2023-02-15T05:24:22;0.90;98.70
3356;DHT22;1691;52.486;13.374;2023-02-15T05:27:12;0.90;98.70
3356;DHT22;1691;52.486;13.374;2023-02-15T05:29:58;0.90;98.70
3356;DHT22;1691;52.486;13.374;2023-02-15T05:32:25;0.90;98.70
3356;DHT22;1691;52.486;13.374;2023-02-15T05:34:52;0.90;98.70
3356;DHT22;1691;52.486;13.374;2023-02-15T05:37:19;0.90;98.70
3356;DHT22;1691;52.486;13.374;2023-02-15T05:39:46;0.90;98.70
3356;DHT22;1691;52.486;13.374;2023-02-15T05:42:13;0.90;98.70
3356;DHT22;1691;52.486;13.374;2023-02-15T05:44:40;0.90;98.70
3356;DHT22;1691;52.486;13.374;2023-02-15T05:47:07;1.00;98.70
3356;DHT22;1691;52.486;13.374;2023-02-15T05:49:34;1.00;98.70
3356;DHT22;1691;52.486;13.374;2023-02-15T05:52:01;1.00;98.70
3356;DHT22;1691;52.486;13.374;2023-02-15T05:54:29;1.00;98.70
3356;DHT22;1691;52.486;13.374;2023-02-15T05:56:56;1.00;98.70
3356;DHT22;1691;52.486;13.374;2023-02-15T05:59:23;1.00;98.70
3356;DHT22;1691;52.486;13.374;2023-02-15T06:01:50;1.00;98.70
3356;DHT22;1691;52.486;13.374;2023-02-15T06:04:17;0.90;98.70
3356;DHT22;1691;52.486;13.374;2023-02-15T06:06:44;1.00;98.70
3356;DHT22;1691;52.486;13.374;2023-02-15T06:09:12;1.00;98.70
3356;DHT22;1691;52.486;13.374;2023-02-15T06:11:39;1.00;98.70
3356;DHT22;1691;52.486;13.374;2023-02-15T06:14:06;1.00;98.70
3356;DHT22;1691;52.486;13.374;2023-02-15T06:16:33;1.00;98.70
3356;DHT22;1691;52.486;13.374;2023-02-15T06:19:00;0.90;98.70
3356;DHT22;1691;52.486;13.374;2023-02-15T06:21:29;0.90;98.70
3356;DHT22;1691;52.486;13.374;2023-02-15T06:23:57;0.90;98.70
3356;DHT22;1691;52.486;13.374;2023-02-15T06:26:24;0.90;98.70
3356;DHT22;1691;52.486;13.374;2023-02-15T06:28:51;1.00;98.70
3356;DHT22;1691;52.486;13.374;2023-02-15T06:31:18;1.00;98.70
3356;DHT22;1691;52.486;13.374;2023-02-15T06:33:45;1.00;98.70
3356;DHT22;1691;52.486;13.374;2023-02-15T06:36:12;1.00;98.70
3356;DHT22;1691;52.486;13.374;2023-02-15T06:38:39;1.00;98.70
3356;DHT22;1691;52.486;13.374;2023-02-15T06:41:06;1.10;98.70
3356;DHT22;1691;52.486;13.374;2023-02-15T06:43:33;1.10;98.70
3356;DHT22;1691;52.486;13.374;2023-02-15T06:46:00;1.10;98.70
3356;DHT22;1691;52.486;13.374;2023-02-15T06:48:28;1.10;98.70
3356;DHT22;1691;52.486;13.374;2023-02-15T06:50:55;1.10;98.70
3356;DHT22;1691;52.486;13.374;2023-02-15T06:53:22;1.10;98.70
3356;DHT22;1691;52.486;13.374;2023-02-15T06:55:48;1.10;98.70
3356;DHT22;1691;52.486;13.374;2023-02-15T06:58:16;1.20;98.70
3356;DHT22;1691;52.486;13.374;2023-02-15T07:00:42;1.20;98.70
3356;DHT22;1691;52.486;13.374;2023-02-15T07:03:09;1.20;98.70
3356;DHT22;1691;52.486;13.374;2023-02-15T07:05:39;1.20;98.70
3356;DHT22;1691;52.486;13.374;2023-02-15T07:08:06;1.20;98.70
3356;DHT22;1691;52.486;13.374;2023-02-15T07:10:33;1.30;98.70
3356;DHT22;1691;52.486;13.374;2023-02-15T07:13:00;1.30;98.70
3356;DHT22;1691;52.486;13.374;2023-02-15T07:15:27;1.30;98.70
3356;DHT22;1691;52.486;13.374;2023-02-15T07:17:54;1.30;98.70
3356;DHT22;1691;52.486;13.374;2023-02-15T07:20:22;1.40;98.70
3356;DHT22;1691;52.486;13.374;2023-02-15T07:22:50;1.40;98.70
3356;DHT22;1691;52.486;13.374;2023-02-15T07:25:17;1.40;98.70
3356;DHT22;1691;52.486;13.374;2023-02-15T07:27:44;1.40;98.70
3356;DHT22;1691;52.486;13.374;2023-02-15T07:30:14;1.40;98.70
3356;DHT22;1691;52.486;13.374;2023-02-15T07:32:43;1.30;98.70
3356;DHT22;1691;52.486;13.374;2023-02-15T07:35:31;1.30;98.70
3356;DHT22;1691;52.486;13.374;2023-02-15T07:37:59;1.30;98.70
3356;DHT22;1691;52.486;13.374;2023-02-15T07:40:26;1.30;98.70
3356;DHT22;1691;52.486;13.374;2023-02-15T07:42:53;1.30;98.70
3356;DHT22;1691;52.486;13.374;2023-02-15T07:45:25;1.40;98.70
3356;DHT22;1691;52.486;13.374;2023-02-15T07:47:52;1.40;98.70
3356;DHT22;1691;52.486;13.374;2023-02-15T07:50:19;1.50;98.70
3356;DHT22;1691;52.486;13.374;2023-02-15T07:52:46;1.50;98.70
3356;DHT22;1691;52.486;13.374;2023-02-15T07:55:13;1.60;98.70
3356;DHT22;1691;52.486;13.374;2023-02-15T07:57:44;1.70;98.70
3356;DHT22;1691;52.486;13.374;2023-02-15T08:00:13;1.80;98.70
3356;DHT22;1691;52.486;13.374;2023-02-15T08:02:42;1.80;98.70
3356;DHT22;1691;52.486;13.374;2023-02-15T08:05:09;1.80;98.70
3356;DHT22;1691;52.486;13.374;2023-02-15T08:07:36;1.90;98.70
3356;DHT22;1691;52.486;13.374;2023-02-15T08:10:03;1.90;98.70
3356;DHT22;1691;52.486;13.374;2023-02-15T08:12:31;2.00;98.70
3356;DHT22;1691;52.486;13.374;2023-02-15T08:14:58;2.10;98.70
3356;DHT22;1691;52.486;13.374;2023-02-15T08:17:25;2.10;98.70
3356;DHT22;1691;52.486;13.374;2023-02-15T08:19:52;2.20;98.70
3356;DHT22;1691;52.486;13.374;2023-02-15T08:22:19;2.30;98.70
3356;DHT22;1691;52.486;13.374;2023-02-15T08:24:46;2.40;98.70
3356;DHT22;1691;52.486;13.374;2023-02-15T08:27:13;2.40;98.70
3356;DHT22;1691;52.486;13.374;2023-02-15T08:29:40;2.50;98.70
3356;DHT22;1691;52.486;13.374;2023-02-15T08:32:10;2.60;98.70
3356;DHT22;1691;52.486;13.374;2023-02-15T08:34:40;2.60;98.70
3356;DHT22;1691;52.486;13.374;2023-02-15T08:37:08;2.70;98.70
3356;DHT22;1691;52.486;13.374;2023-02-15T08:39:35;2.70;98.70
3356;DHT22;1691;52.486;13.374;2023-02-15T08:42:03;2.80;98.70
3356;DHT22;1691;52.486;13.374;2023-02-15T08:44:30;2.80;98.70
3356;DHT22;1691;52.486;13.374;2023-02-15T08:46:57;2.80;98.70
3356;DHT22;1691;52.486;13.374;2023-02-15T08:49:30;2.80;98.70
3356;DHT22;1691;52.486;13.374;2023-02-15T08:51:57;2.80;98.70
3356;DHT22;1691;52.486;13.374;2023-02-15T08:54:24;2.80;98.70
3356;DHT22;1691;52.486;13.374;2023-02-15T08:56:51;2.80;98.70
3356;DHT22;1691;52.486;13.374;2023-02-15T08:59:21;2.90;98.70
3356;DHT22;1691;52.486;13.374;2023-02-15T09:01:50;3.00;98.70
3356;DHT22;1691;52.486;13.374;2023-02-15T09:04:18;3.10;98.70
3356;DHT22;1691;52.486;13.374;2023-02-15T09:06:47;3.20;98.70
3356;DHT22;1691;52.486;13.374;2023-02-15T09:09:17;3.30;98.70
3356;DHT22;1691;52.486;13.374;2023-02-15T09:11:47;3.40;98.70
3356;DHT22;1691;52.486;13.374;2023-02-15T09:14:21;3.50;98.70
3356;DHT22;1691;52.486;13.374;2023-02-15T09:16:52;3.60;98.70
3356;DHT22;1691;52.486;13.374;2023-02-15T09:19:20;3.70;98.70
3356;DHT22;1691;52.486;13.374;2023-02-15T09:21:48;3.80;98.70
3356;DHT22;1691;52.486;13.374;2023-02-15T09:24:17;3.90;98.70
3356;DHT22;1691;52.486;13.374;2023-02-15T09:26:46;4.00;98.70
3356;DHT22;1691;52.486;13.374;2023-02-15T09:29:15;4.10;98.70
3356;DHT22;1691;52.486;13.374;2023-02-15T09:31:48;4.30;98.70
3356;DHT22;1691;52.486;13.374;2023-02-15T09:34:18;4.40;98.30
3356;DHT22;1691;52.486;13.374;2023-02-15T09:36:47;4.50;98.30
3356;DHT22;1691;52.486;13.374;2023-02-15T09:39:23;4.60;98.10
3356;DHT22;1691;52.486;13.374;2023-02-15T09:53:56;4.90;97.40
3356;DHT22;1691;52.486;13.374;2023-02-15T09:56:36;5.10;97.20
3356;DHT22;1691;52.486;13.374;2023-02-15T10:02:24;5.20;96.60
3356;DHT22;1691;52.486;13.374;2023-02-15T10:11:52;5.40;96.30
3356;DHT22;1691;52.486;13.374;2023-02-15T10:28:50;6.20;95.20
3356;DHT22;1691;52.486;13.374;2023-02-15T10:31:27;6.40;94.90
3356;DHT22;1691;52.486;13.374;2023-02-15T10:34:18;6.50;94.70
3356;DHT22;1691;52.486;13.374;2023-02-15T10:37:08;6.70;94.50
3356;DHT22;1691;52.486;13.374;2023-02-15T10:46:03;7.40;93.70
3356;DHT22;1691;52.486;13.374;2023-02-15T10:49:00;7.80;93.30
3356;DHT22;1691;52.486;13.374;2023-02-15T10:52:07;8.20;92.80
3356;DHT22;1691;52.486;13.374;2023-02-15T11:01:22;8.40;91.10
3356;DHT22;1691;52.486;13.374;2023-02-15T11:06:52;8.20;91.00
3356;DHT22;1691;52.486;13.374;2023-02-15T11:09:25;8.10;90.70
3356;DHT22;1691;52.486;13.374;2023-02-15T11:12:00;7.90;90.80
3356;DHT22;1691;52.486;13.374;2023-02-15T11:14:40;7.70;90.80
3356;DHT22;1691;52.486;13.374;2023-02-15T11:17:19;7.50;91.20
3356;DHT22;1691;52.486;13.374;2023-02-15T11:19:58;7.50;91.40
3356;DHT22;1691;52.486;13.374;2023-02-15T11:22:33;7.50;91.50
3356;DHT22;1691;52.486;13.374;2023-02-15T11:25:01;7.60;91.30
3356;DHT22;1691;52.486;13.374;2023-02-15T11:27:32;7.50;91.00
3356;DHT22;1691;52.486;13.374;2023-02-15T11:30:10;7.30;90.70
3356;DHT22;1691;52.486;13.374;2023-02-15T11:32:43;7.10;90.80
3356;DHT22;1691;52.486;13.374;2023-02-15T11:38:02;6.70;91.10
3356;DHT22;1691;52.486;13.374;2023-02-15T11:40:44;6.60;91.10
3356;DHT22;1691;52.486;13.374;2023-02-15T11:43:21;6.50;91.30
3356;DHT22;1691;52.486;13.374;2023-02-15T11:45:53;6.40;91.40
3356;DHT22;1691;52.486;13.374;2023-02-15T11:48:21;6.30;91.60
3356;DHT22;1691;52.486;13.374;2023-02-15T11:50:48;6.30;91.70
3356;DHT22;1691;52.486;13.374;2023-02-15T11:53:18;6.30;91.90
3356;DHT22;1691;52.486;13.374;2023-02-15T11:55:55;6.30;91.80
3356;DHT22;1691;52.486;13.374;2023-02-15T12:04:26;6.30;91.90
3356;DHT22;1691;52.486;13.374;2023-02-15T12:10:03;6.40;92.00
3356;DHT22;1691;52.486;13.374;2023-02-15T12:12:35;6.40;92.00
3356;DHT22;1691;52.486;13.374;2023-02-15T12:15:08;6.50;92.10
3356;DHT22;1691;52.486;13.374;2023-02-15T12:17:52;6.60;92.10
3356;DHT22;1691;52.486;13.374;2023-02-15T12:20:23;6.70;92.10
3356;DHT22;1691;52.486;13.374;2023-02-15T12:22:59;6.80;91.90
3356;DHT22;1691;52.486;13.374;2023-02-15T12:25:43;6.90;92.00
3356;DHT22;1691;52.486;13.374;2023-02-15T12:28:29;7.00;92.00
3356;DHT22;1691;52.486;13.374;2023-02-15T12:31:22;7.10;91.90
3356;DHT22;1691;52.486;13.374;2023-02-15T12:33:52;7.20;91.90
3356;DHT22;1691;52.486;13.374;2023-02-15T12:36:23;7.30;91.80
3356;DHT22;1691;52.486;13.374;2023-02-15T12:41:56;7.40;91.70
3356;DHT22;1691;52.486;13.374;2023-02-15T12:44:31;7.50;91.70
3356;DHT22;1691;52.486;13.374;2023-02-15T12:49:43;7.60;91.70
3356;DHT22;1691;52.486;13.374;2023-02-15T12:54:51;7.70;91.70
3356;DHT22;1691;52.486;13.374;2023-02-15T12:57:33;7.70;91.70
3356;DHT22;1691;52.486;13.374;2023-02-15T13:00:37;7.80;91.70
3356;DHT22;1691;52.486;13.374;2023-02-15T13:03:29;7.90;91.60
3356;DHT22;1691;52.486;13.374;2023-02-15T13:06:11;7.90;91.50
3356;DHT22;1691;52.486;13.374;2023-02-15T13:09:05;8.00;91.50
3356;DHT22;1691;52.486;13.374;2023-02-15T13:15:44;8.20;91.40
3356;DHT22;1691;52.486;13.374;2023-02-15T13:18:55;8.20;91.40
3356;DHT22;1691;52.486;13.374;2023-02-15T13:21:54;8.40;91.20
3356;DHT22;1691;52.486;13.374;2023-02-15T13:24:51;8.40;91.10
3356;DHT22;1691;52.486;13.374;2023-02-15T13:27:52;8.50;91.00
3356;DHT22;1691;52.486;13.374;2023-02-15T13:30:54;8.60;90.90
3356;DHT22;1691;52.486;13.374;2023-02-15T13:34:00;8.60;90.80
3356;DHT22;1691;52.486;13.374;2023-02-15T13:37:12;8.60;90.70
3356;DHT22;1691;52.486;13.374;2023-02-15T13:40:15;8.70;90.70
3356;DHT22;1691;52.486;13.374;2023-02-15T14:00:36;9.30;90.20
3356;DHT22;1691;52.486;13.374;2023-02-15T14:10:59;9.60;89.90
3356;DHT22;1691;52.486;13.374;2023-02-15T14:14:05;9.70;89.50
3356;DHT22;1691;52.486;13.374;2023-02-15T14:20:36;9.90;88.80
3356;DHT22;1691;52.486;13.374;2023-02-15T14:23:49;10.00;88.60
3356;DHT22;1691;52.486;13.374;2023-02-15T14:32:00;10.20;87.90
3356;DHT22;1691;52.486;13.374;2023-02-15T14:34:56;10.30;87.70
3356;DHT22;1691;52.486;13.374;2023-02-15T14:43:20;10.40;86.90
3356;DHT22;1691;52.486;13.374;2023-02-15T14:48:53;10.50;86.20
3356;DHT22;1691;52.486;13.374;2023-02-15T15:05:48;10.30;86.20
3356;DHT22;1691;52.486;13.374;2023-02-15T15:08:33;10.30;86.00
3356;DHT22;1691;52.486;13.374;2023-02-15T15:14:10;10.20;86.00
3356;DHT22;1691;52.486;13.374;2023-02-15T15:16:50;10.20;86.00
3356;DHT22;1691;52.486;13.374;2023-02-15T15:28:05;10.10;86.00
3356;DHT22;1691;52.486;13.374;2023-02-15T15:39:55;10.00;86.20
3356;DHT22;1691;52.486;13.374;2023-02-15T15:43:30;10.00;86.20
3356;DHT22;1691;52.486;13.374;2023-02-15T15:46:33;9.90;86.40
3356;DHT22;1691;52.486;13.374;2023-02-15T15:49:12;9.90;86.40
3356;DHT22;1691;52.486;13.374;2023-02-15T15:51:43;9.80;86.50
3356;DHT22;1691;52.486;13.374;2023-02-15T15:54:22;9.80;86.70
3356;DHT22;1691;52.486;13.374;2023-02-15T15:57:02;9.70;86.70
3356;DHT22;1691;52.486;13.374;2023-02-15T15:59:33;9.70;86.90
3356;DHT22;1691;52.486;13.374;2023-02-15T16:02:06;9.60;86.90
3356;DHT22;1691;52.486;13.374;2023-02-15T16:04:34;9.60;87.30
3356;DHT22;1691;52.486;13.374;2023-02-15T16:10:03;9.50;87.50
3356;DHT22;1691;52.486;13.374;2023-02-15T16:12:34;9.40;87.70
3356;DHT22;1691;52.486;13.374;2023-02-15T16:15:15;9.40;87.70
3356;DHT22;1691;52.486;13.374;2023-02-15T16:17:47;9.30;87.90
3356;DHT22;1691;52.486;13.374;2023-02-15T16:20:17;9.20;88.00
3356;DHT22;1691;52.486;13.374;2023-02-15T16:22:53;9.20;88.40
3356;DHT22;1691;52.486;13.374;2023-02-15T16:28:32;9.00;88.80
3356;DHT22;1691;52.486;13.374;2023-02-15T16:31:13;8.90;89.00
3356;DHT22;1691;52.486;13.374;2023-02-15T16:33:42;8.80;89.20
3356;DHT22;1691;52.486;13.374;2023-02-15T16:36:21;8.70;89.30
3356;DHT22;1691;52.486;13.374;2023-02-15T16:41:21;8.60;89.90
3356;DHT22;1691;52.486;13.374;2023-02-15T16:43:50;8.50;90.10
3356;DHT22;1691;52.486;13.374;2023-02-15T16:46:29;8.50;90.10
3356;DHT22;1691;52.486;13.374;2023-02-15T16:49:01;8.40;90.20
3356;DHT22;1691;52.486;13.374;2023-02-15T16:51:33;8.40;90.30
3356;DHT22;1691;52.486;13.374;2023-02-15T16:54:06;8.30;90.40
3356;DHT22;1691;52.486;13.374;2023-02-15T16:56:35;8.20;90.60
3356;DHT22;1691;52.486;13.374;2023-02-15T16:59:03;8.20;90.70
3356;DHT22;1691;52.486;13.374;2023-02-15T17:01:32;8.10;90.80
3356;DHT22;1691;52.486;13.374;2023-02-15T17:04:31;8.00;90.90
3356;DHT22;1691;52.486;13.374;2023-02-15T17:07:16;7.90;91.10
3356;DHT22;1691;52.486;13.374;2023-02-15T17:09:55;7.90;91.20
3356;DHT22;1691;52.486;13.374;2023-02-15T17:12:46;7.70;91.40
3356;DHT22;1691;52.486;13.374;2023-02-15T17:15:33;7.70;91.50
3356;DHT22;1691;52.486;13.374;2023-02-15T17:18:15;7.60;91.70
3356;DHT22;1691;52.486;13.374;2023-02-15T17:20:45;7.60;91.80
3356;DHT22;1691;52.486;13.374;2023-02-15T17:23:40;7.60;91.90
3356;DHT22;1691;52.486;13.374;2023-02-15T17:28:53;7.50;92.10
3356;DHT22;1691;52.486;13.374;2023-02-15T17:31:25;7.50;92.20
3356;DHT22;1691;52.486;13.374;2023-02-15T17:33:59;7.50;92.30
3356;DHT22;1691;52.486;13.374;2023-02-15T17:36:28;7.50;92.40
3356;DHT22;1691;52.486;13.374;2023-02-15T17:39:05;7.50;92.50
3356;DHT22;1691;52.486;13.374;2023-02-15T17:41:49;7.40;92.50
3356;DHT22;1691;52.486;13.374;2023-02-15T17:44:19;7.40;92.70
3356;DHT22;1691;52.486;13.374;2023-02-15T17:46:46;7.40;92.80
3356;DHT22;1691;52.486;13.374;2023-02-15T17:49:23;7.50;92.80
3356;DHT22;1691;52.486;13.374;2023-02-15T17:51:51;7.50;92.70
3356;DHT22;1691;52.486;13.374;2023-02-15T17:54:18;7.50;92.70
3356;DHT22;1691;52.486;13.374;2023-02-15T17:57:12;7.40;92.60
3356;DHT22;1691;52.486;13.374;2023-02-15T17:59:40;7.40;92.80
3356;DHT22;1691;52.486;13.374;2023-02-15T18:02:33;7.40;92.90
3356;DHT22;1691;52.486;13.374;2023-02-15T18:05:19;7.40;92.90
3356;DHT22;1691;52.486;13.374;2023-02-15T18:08:13;7.30;92.90
3356;DHT22;1691;52.486;13.374;2023-02-15T18:11:00;7.30;92.90
3356;DHT22;1691;52.486;13.374;2023-02-15T18:13:46;7.20;92.90
3356;DHT22;1691;52.486;13.374;2023-02-15T18:16:22;7.20;93.00
3356;DHT22;1691;52.486;13.374;2023-02-15T18:18:51;7.10;93.00
3356;DHT22;1691;52.486;13.374;2023-02-15T18:21:19;7.10;93.20
3356;DHT22;1691;52.486;13.374;2023-02-15T18:23:45;7.10;93.20
3356;DHT22;1691;52.486;13.374;2023-02-15T18:26:19;7.10;93.30
3356;DHT22;1691;52.486;13.374;2023-02-15T18:28:47;7.10;93.50
3356;DHT22;1691;52.486;13.374;2023-02-15T18:31:14;7.10;93.70
3356;DHT22;1691;52.486;13.374;2023-02-15T18:33:47;7.10;93.70
3356;DHT22;1691;52.486;13.374;2023-02-15T18:36:28;7.10;93.70
3356;DHT22;1691;52.486;13.374;2023-02-15T18:38:59;7.10;93.70
3356;DHT22;1691;52.486;13.374;2023-02-15T18:41:32;7.00;93.70
3356;DHT22;1691;52.486;13.374;2023-02-15T18:43:59;7.00;93.70
3356;DHT22;1691;52.486;13.374;2023-02-15T18:46:26;6.90;93.70
3356;DHT22;1691;52.486;13.374;2023-02-15T18:48:53;6.90;93.80
3356;DHT22;1691;52.486;13.374;2023-02-15T18:51:22;6.90;93.80
3356;DHT22;1691;52.486;13.374;2023-02-15T18:53:51;6.80;93.90
3356;DHT22;1691;52.486;13.374;2023-02-15T18:56:21;6.70;93.90
3356;DHT22;1691;52.486;13.374;2023-02-15T18:58:48;6.60;94.10
3356;DHT22;1691;52.486;13.374;2023-02-15T19:01:19;6.60;94.20
3356;DHT22;1691;52.486;13.374;2023-02-15T19:03:49;6.60;94.30
3356;DHT22;1691;52.486;13.374;2023-02-15T19:06:19;6.50;94.30
3356;DHT22;1691;52.486;13.374;2023-02-15T19:08:50;6.50;94.40
3356;DHT22;1691;52.486;13.374;2023-02-15T19:11:22;6.40;94.50
3356;DHT22;1691;52.486;13.374;2023-02-15T19:13:51;6.40;94.50
3356;DHT22;1691;52.486;13.374;2023-02-15T19:18:58;6.30;94.60
3356;DHT22;1691;52.486;13.374;2023-02-15T19:21:27;6.20;94.80
3356;DHT22;1691;52.486;13.374;2023-02-15T19:24:02;6.20;94.90
3356;DHT22;1691;52.486;13.374;2023-02-15T19:26:34;6.20;95.00
3356;DHT22;1691;52.486;13.374;2023-02-15T19:29:13;6.10;95.00
3356;DHT22;1691;52.486;13.374;2023-02-15T19:31:41;6.10;95.10
3356;DHT22;1691;52.486;13.374;2023-02-15T19:34:14;6.00;95.20
3356;DHT22;1691;52.486;13.374;2023-02-15T19:36:47;6.00;95.30
3356;DHT22;1691;52.486;13.374;2023-02-15T19:39:30;6.00;95.30
3356;DHT22;1691;52.486;13.374;2023-02-15T19:42:03;6.00;95.40
3356;DHT22;1691;52.486;13.374;2023-02-15T19:44:30;5.90;95.40
3356;DHT22;1691;52.486;13.374;2023-02-15T19:46:57;5.90;95.50
3356;DHT22;1691;52.486;13.374;2023-02-15T19:49:24;5.90;95.50
3356;DHT22;1691;52.486;13.374;2023-02-15T19:51:51;5.90;95.60
3356;DHT22;1691;52.486;13.374;2023-02-15T19:54:25;5.90;95.70
3356;DHT22;1691;52.486;13.374;2023-02-15T19:56:54;5.80;95.90
3356;DHT22;1691;52.486;13.374;2023-02-15T19:59:30;5.80;95.90